Camanche, Iowa
Current Conditions -  °F | °C
As of 4:55 AM on Friday 31 Oct 2014 (Local Time) from KCWI Reporting Station
Broken Clouds Broken Clouds  
Wind Chill: 27°   Ceiling: 5000
Heat Index: 37°   Visibility: 10mi
Dew Point: 18°   Wind: 18mph
Humidity: 45%   Direction: 340°NNW
Pressure: 30.22"   Gusts: 24mph
Location:  41.79°N, 90.26°W
Report Text: KCWI 310955Z 34016G21KT 10SM BKN050 03/M08 A3022 RMK AO1
Loading
Personal Weather Stations






























Interactive Weather Map
Tropical Storm Tracking
New forecast layout! Learn more

10-Day Weather Forecast

Advertisements
Track Severe Weather on mobile